Time;durP1;ratioP1;P1;durP2;ratioP2;P2;SDS_P1;SDS_P2;PMS_P1;PMS_P2;Temp;Humidity;BMP_temperature;BMP_pressure;BME280_temperature;BME280_humidity;BME280_pressure;Samples;Min_cycle;Max_cycle;Signal;HPM_P1;HPM_P2
2022/11/06 00:00:26;;;;;;;10.15;5.82;;;;;;;;;;5147890;27;20425;-75
2022/11/06 00:02:52;;;;;;;10.65;6.07;;;;;;;;;;5147358;27;20408;-76
2022/11/06 00:08:03;;;;;;;13.77;6.70;;;;;;;;;;5120295;28;20489;-76
2022/11/06 00:10:30;;;;;;;11.23;6.35;;;;;;;;;;5139211;27;20423;-76
2022/11/06 00:12:56;;;;;;;12.65;6.90;;;;;;;;;;5131352;27;20984;-76
2022/11/06 00:15:22;;;;;;;13.65;7.53;;;;;;;;;;5141938;27;20762;-75
2022/11/06 00:17:49;;;;;;;14.82;7.22;;;;;;;;;;5111548;28;20456;-74
2022/11/06 00:20:15;;;;;;;15.38;7.65;;;;;;;;;;5134277;27;20845;-75
2022/11/06 00:22:42;;;;;;;14.03;7.70;;;;;;;;;;5148362;27;20769;-74
2022/11/06 00:25:08;;;;;;;13.15;7.47;;;;;;;;;;5143584;27;20917;-74
2022/11/06 00:27:38;;;;;;;13.55;7.97;;;;;;;;;;5130318;27;20418;-75
2022/11/06 00:30:05;;;;;;;13.82;7.72;;;;;;;;;;5148310;27;20450;-75
2022/11/06 00:32:31;;;;;;;15.80;8.23;;;;;;;;;;5131111;27;20485;-75
2022/11/06 00:34:57;;;;;;;12.80;7.85;;;;;;;;;;5132977;27;20538;-75
2022/11/06 00:38:13;;;;;;;12.95;8.38;;;;;;;;;;5095786;27;20376;-75
2022/11/06 00:40:39;;;;;;;15.20;8.73;;;;;;;;;;5070612;28;20405;-75
2022/11/06 00:43:05;;;;;;;14.50;8.32;;;;;;;;;;5070770;28;20759;-75
2022/11/06 00:45:31;;;;;;;14.35;8.48;;;;;;;;;;5067559;28;20453;-75
2022/11/06 00:47:57;;;;;;;16.08;8.82;;;;;;;;;;5104008;28;20425;-75
2022/11/06 00:50:25;;;;;;;14.75;8.25;;;;;;;;;;5073749;28;20515;-75
2022/11/06 00:52:51;;;;;;;16.75;8.88;;;;;;;;;;5080838;28;20423;-75
2022/11/06 00:55:17;;;;;;;13.13;8.23;;;;;;;;;;5086279;28;20429;-75
2022/11/06 00:57:46;;;;;;;19.83;8.95;;;;;;;;;;5085592;28;20828;-75
2022/11/06 01:00:13;;;;;;;14.73;8.68;;;;;;;;;;5087548;28;20490;-75
2022/11/06 01:02:39;;;;;;;17.83;9.00;;;;;;;;;;5102981;28;20433;-75
2022/11/06 01:05:05;;;;;;;16.75;9.05;;;;;;;;;;5084807;28;20570;-76
2022/11/06 01:07:31;;;;;;;16.17;9.07;;;;;;;;;;5050055;28;20429;-76
2022/11/06 01:09:57;;;;;;;16.88;9.23;;;;;;;;;;5083143;28;20946;-76
2022/11/06 01:12:23;;;;;;;17.02;9.15;;;9.70;99.90;;;;;;5085061;28;20792;-76
2022/11/06 01:14:49;;;;;;;15.13;9.20;;;;;;;;;;5103831;28;20399;-76
2022/11/06 01:17:15;;;;;;;17.90;10.60;;;;;;;;;;5119240;27;20934;-77
2022/11/06 01:19:41;;;;;;;15.73;9.73;;;;;;;;;;5085983;28;20907;-77
2022/11/06 01:22:07;;;;;;;16.00;10.35;;;;;;;;;;5052981;28;20931;-78
2022/11/06 01:24:33;;;;;;;18.02;10.45;;;;;;;;;;5096988;28;20426;-77
2022/11/06 01:26:59;;;;;;;19.52;11.18;;;;;;;;;;5037174;28;20429;-77
2022/11/06 01:30:06;;;;;;;16.73;11.20;;;;;;;;;;5085244;27;20422;-78
2022/11/06 01:32:33;;;;;;;17.48;11.63;;;;;;;;;;5065963;28;20391;-77
2022/11/06 01:34:59;;;;;;;21.33;11.60;;;;;;;;;;5048055;27;20530;-77
2022/11/06 01:38:16;;;;;;;19.00;11.83;;;;;;;;;;5109048;27;20350;-77
2022/11/06 01:40:43;;;;;;;22.00;11.98;;;9.40;99.90;;;;;;5090871;28;20758;-77
2022/11/06 01:43:22;;;;;;;20.30;12.90;;;9.30;99.90;;;;;;5091242;28;20405;-77
2022/11/06 01:45:49;;;;;;;19.17;12.43;;;;;;;;;;5086468;28;20415;-77
2022/11/06 01:49:01;;;;;;;20.13;12.23;;;9.40;99.90;;;;;;5102844;27;20729;-77
2022/11/06 01:51:28;;;;;;;19.42;12.70;;;;;;;;;;5088871;28;20448;-77
2022/11/06 01:53:54;;;;;;;19.60;13.20;;;;;;;;;;5107128;28;20421;-78
2022/11/06 01:56:20;;;;;;;19.70;13.88;;;;;;;;;;5081544;28;20475;-78
2022/11/06 01:58:49;;;;;;;22.27;13.98;;;9.40;99.90;;;;;;5090793;28;20409;-78
2022/11/06 02:01:16;;;;;;;21.33;13.55;;;;;;;;;;5103152;28;20435;-78
2022/11/06 02:03:54;;;;;;;22.65;13.85;;;9.40;99.90;;;;;;5078754;28;20425;-78
2022/11/06 02:06:21;;;;;;;23.15;14.40;;;9.30;99.90;;;;;;5098291;28;20470;-78
2022/11/06 02:08:47;;;;;;;21.05;13.05;;;;;;;;;;5069679;28;20431;-79
2022/11/06 02:11:13;;;;;;;20.05;13.82;;;;;;;;;;5078921;28;20504;-79
2022/11/06 02:14:01;;;;;;;21.20;14.35;;;;;;;;;;5106150;28;20428;-79
2022/11/06 02:16:59;;;;;;;23.73;14.52;;;9.50;99.90;;;;;;5120394;27;20367;-77
2022/11/06 02:20:35;;;;;;;21.23;14.50;;;;;;;;;;5107895;27;1978940;-78
2022/11/06 02:23:01;;;;;;;24.77;14.43;;;;;;;;;;5152604;27;20923;-78
2022/11/06 02:26:04;;;;;;;22.73;14.67;;;9.40;99.90;;;;;;5140021;27;20457;-78
2022/11/06 02:28:30;;;;;;;26.23;14.70;;;;;;;;;;5107071;27;20470;-78
2022/11/06 02:31:01;;;;;;;24.10;14.40;;;9.40;99.90;;;;;;5110985;27;20908;-78
2022/11/06 02:33:30;;;;;;;22.35;14.23;;;;;;;;;;5149705;27;20443;-77
2022/11/06 02:36:04;;;;;;;24.60;15.13;;;;;;;;;;5130209;27;20421;-77
2022/11/06 02:39:26;;;;;;;22.58;14.30;;;;;;;;;;5128637;27;20703;-77
2022/11/06 02:41:52;;;;;;;22.02;14.70;;;;;;;;;;5107621;28;20507;-76
2022/11/06 02:44:20;;;;;;;22.70;14.73;;;;;;;;;;5106922;28;20416;-78
2022/11/06 02:46:49;;;;;;;26.00;15.07;;;;;;;;;;5118705;28;20420;-77
2022/11/06 02:49:26;;;;;;;23.25;15.05;;;9.40;99.90;;;;;;5105129;28;20504;-77
2022/11/06 02:52:44;;;;;;;22.83;14.47;;;;;;;;;;5088742;27;20391;-76
2022/11/06 02:56:20;;;;;;;22.77;14.80;;;9.40;99.90;;;;;;5102618;27;20383;-77
2022/11/06 02:58:49;;;;;;;21.93;15.50;;;;;;;;;;5085469;28;20478;-77
2022/11/06 03:01:19;;;;;;;21.15;14.90;;;;;;;;;;5088721;28;20447;-77
2022/11/06 03:03:51;;;;;;;19.95;14.13;;;9.40;99.90;;;;;;5090179;28;20417;-77
2022/11/06 03:06:33;;;;;;;22.58;14.55;;;;;;;;;;5100655;28;20424;-78
2022/11/06 03:09:04;;;;;;;22.07;14.30;;;;;;;;;;5107580;28;20420;-77
2022/11/06 03:11:40;;;;;;;20.67;15.13;;;;;;;;;;5104712;28;20501;-77
2022/11/06 03:14:15;;;;;;;19.92;15.00;;;;;;;;;;5127965;27;20442;-77
2022/11/06 03:16:44;;;;;;;19.20;13.95;;;;;;;;;;5091875;28;20417;-78
2022/11/06 03:19:23;;;;;;;21.58;14.00;;;;;;;;;;5090552;28;20953;-78
2022/11/06 03:21:52;;;;;;;21.10;13.88;;;;;;;;;;5106290;28;20428;-78
2022/11/06 03:24:27;;;;;;;20.88;14.10;;;;;;;;;;5107182;28;20440;-77
2022/11/06 03:29:10;;;;;;;19.52;14.55;;;;;;;;;;5130099;27;20363;-77
2022/11/06 03:31:38;;;;;;;20.30;14.45;;;;;;;;;;5111745;27;20861;-77
2022/11/06 03:34:06;;;;;;;19.48;14.10;;;;;;;;;;5125935;27;20414;-77
2022/11/06 03:36:41;;;;;;;21.15;14.60;;;;;;;;;;5127543;27;22245;-77
2022/11/06 03:39:10;;;;;;;20.63;14.50;;;;;;;;;;5111097;27;20425;-76
2022/11/06 03:41:55;;;;;;;22.48;14.18;;;;;;;;;;5111383;28;20490;-77
2022/11/06 03:44:23;;;;;;;19.73;14.02;;;;;;;;;;5111128;27;20451;-77
2022/11/06 03:46:53;;;;;;;22.73;14.77;;;;;;;;;;5127647;27;20427;-77
2022/11/06 03:49:25;;;;;;;22.93;14.63;;;9.70;99.90;;;;;;5110924;27;20415;-77
2022/11/06 03:52:15;;;;;;;19.00;14.40;;;9.50;99.90;;;;;;5111288;27;20407;-77
2022/11/06 03:54:51;;;;;;;22.65;14.90;;;9.40;99.90;;;;;;5110689;27;20500;-77
2022/11/06 03:57:23;;;;;;;21.77;14.57;;;;;;;;;;5128521;27;20443;-77
2022/11/06 03:59:52;;;;;;;23.80;14.27;;;;;;;;;;5111257;28;20392;-76
2022/11/06 04:02:19;;;;;;;22.23;14.45;;;;;;;;;;5095056;27;20919;-76
2022/11/06 04:04:58;;;;;;;21.92;14.20;;;9.60;99.90;;;;;;5129166;27;20393;-75
2022/11/06 04:07:26;;;;;;;22.37;13.87;;;;;;;;;;5117891;27;20459;-75
2022/11/06 04:15:24;;;;;;;23.87;13.77;;;9.60;99.90;;;;;;5110592;28;20996;-76
2022/11/06 04:17:50;;;;;;;20.70;13.85;;;;;;;;;;5107393;28;20416;-77
2022/11/06 04:22:28;;;;;;;22.05;14.07;;;;;;;;;;5101360;27;20892;-74
2022/11/06 04:27:44;;;;;;;20.70;13.25;;;;;;;;;;5087330;28;20506;-75
2022/11/06 04:30:13;;;;;;;22.08;13.55;;;;;;;;;;5102581;28;20983;-75
2022/11/06 04:32:54;;;;;;;19.23;12.63;;;9.70;99.90;;;;;;5104960;28;20917;-75
2022/11/06 04:35:20;;;;;;;20.35;12.32;;;;;;;;;;5084218;28;20483;-76
2022/11/06 04:38:06;;;;;;;21.58;12.70;;;9.70;99.90;;;;;;5083477;28;20840;-76
2022/11/06 04:41:11;;;;;;;23.50;12.63;;;9.70;99.90;;;;;;5107104;28;20421;-76
2022/11/06 04:43:57;;;;;;;20.97;12.83;;;;;;;;;;5089730;28;21064;-76
2022/11/06 04:46:31;;;;;;;20.63;12.43;;;9.60;99.90;;;;;;5078277;28;20415;-76
2022/11/06 04:49:39;;;;;;;18.73;12.60;;;9.70;99.90;;;;;;5128124;27;20380;-75
2022/11/06 04:52:52;;;;;;;19.45;12.13;;;;;;;;;;5150219;27;20447;-75
2022/11/06 04:55:20;;;;;;;17.52;12.13;;;9.80;99.90;;;;;;5137368;27;20419;-75
2022/11/06 04:57:46;;;;;;;21.75;12.60;;;;;;;;;;5145392;27;20882;-75
2022/11/06 05:00:13;;;;;;;19.25;12.27;;;9.70;99.90;;;;;;5130938;27;20423;-75
2022/11/06 05:02:40;;;;;;;18.73;12.25;;;;;;;;;;5130934;27;20467;-76
2022/11/06 05:05:06;;;;;;;15.47;11.33;;;;;;;;;;5149114;27;20402;-75
2022/11/06 05:07:32;;;;;;;22.35;12.25;;;;;;;;;;5123775;27;20446;-77
2022/11/06 05:09:58;;;;;;;17.27;11.77;;;;;;;;;;5129961;27;20425;-77
2022/11/06 05:12:24;;;;;;;17.03;11.43;;;;;;;;;;5147005;27;20428;-76
2022/11/06 05:14:50;;;;;;;20.10;11.65;;;;;;;;;;5125226;27;20437;-76
2022/11/06 05:17:16;;;;;;;20.17;12.18;;;;;;;;;;5123700;27;20413;-77
2022/11/06 05:19:42;;;;;;;18.17;11.60;;;;;;;;;;5129467;27;20463;-77
2022/11/06 05:24:53;;;;;;;18.50;11.65;;;;;;;;;;5107439;27;20428;-77
2022/11/06 05:27:20;;;;;;;18.58;11.30;;;;;;;;;;5134398;27;20421;-77
2022/11/06 05:29:46;;;;;;;19.13;11.38;;;;;;;;;;5135845;27;20417;-77
2022/11/06 05:32:12;;;;;;;16.42;11.38;;;;;;;;;;5126199;27;20414;-76
2022/11/06 05:34:38;;;;;;;18.67;11.07;;;;;;;;;;5092956;27;20482;-77
2022/11/06 05:37:04;;;;;;;16.65;10.35;;;;;;;;;;5128360;27;20765;-76
2022/11/06 05:39:30;;;;;;;15.43;10.68;;;;;;;;;;5144301;27;20489;-76
2022/11/06 05:41:56;;;;;;;19.20;10.35;;;;;;;;;;5129809;27;20421;-76
2022/11/06 05:44:22;;;;;;;18.23;10.70;;;;;;;;;;5142867;27;20419;-76
2022/11/06 05:46:48;;;;;;;17.77;10.52;;;;;;;;;;5107926;27;20524;-77
2022/11/06 05:49:14;;;;;;;14.98;10.68;;;;;;;;;;5149498;27;20397;-75
2022/11/06 05:51:40;;;;;;;14.90;10.30;;;;;;;;;;5143591;27;20426;-78
2022/11/06 05:54:06;;;;;;;19.13;10.90;;;;;;;;;;5130009;27;20475;-78
2022/11/06 05:56:32;;;;;;;17.65;10.45;;;;;;;;;;5110352;27;20418;-77
2022/11/06 05:58:58;;;;;;;21.27;10.43;;;;;;;;;;5139962;27;20762;-77
2022/11/06 06:01:25;;;;;;;18.75;10.65;;;;;;;;;;5128847;27;20438;-77
2022/11/06 06:03:51;;;;;;;19.65;10.88;;;;;;;;;;5115891;28;20457;-78
2022/11/06 06:06:17;;;;;;;18.08;10.40;;;;;;;;;;5122455;27;20414;-76
2022/11/06 06:08:43;;;;;;;18.33;10.80;;;;;;;;;;5099154;28;20511;-77
2022/11/06 06:11:09;;;;;;;14.87;9.57;;;;;;;;;;5096624;28;20420;-77
2022/11/06 06:13:36;;;;;;;18.02;9.98;;;9.20;99.90;;;;;;5089472;28;20421;-76
2022/11/06 06:16:02;;;;;;;18.05;10.52;;;9.60;99.90;;;;;;5106601;27;20494;-77
2022/11/06 06:18:29;;;;;;;20.02;10.13;;;;;;;;;;5097165;27;20425;-76
2022/11/06 06:20:57;;;;;;;17.02;11.15;;;9.40;99.90;;;;;;5114318;27;20431;-75
2022/11/06 06:23:24;;;;;;;18.50;10.13;;;;;;;;;;5106729;27;20449;-75
2022/11/06 06:25:50;;;;;;;20.20;9.27;;;;;;;;;;5092868;28;20501;-76
2022/11/06 06:29:48;;;;;;;18.38;9.70;;;;;;;;;;5129913;27;20348;-75
2022/11/06 06:32:15;;;;;;;21.23;9.52;;;;;;;;;;5130752;27;20777;-75
2022/11/06 06:34:41;;;;;;;14.20;9.15;;;;;;;;;;5125314;27;20397;-76
2022/11/06 06:37:28;;;;;;;16.10;9.07;;;;;;;;;;5112063;27;2027155;-76
2022/11/06 06:39:54;;;;;;;17.38;8.95;;;;;;;;;;5134685;27;20747;-76
2022/11/06 06:42:20;;;;;;;19.75;9.60;;;;;;;;;;5149182;27;20416;-77
2022/11/06 06:44:47;;;;;;;30.42;11.02;;;;;;;;;;5130003;27;20415;-77
2022/11/06 06:47:15;;;;;;;24.80;10.82;;;;;;;;;;5133306;27;20885;-77
2022/11/06 06:49:42;;;;;;;47.22;11.40;;;;;;;;;;5130334;27;20836;-76
2022/11/06 06:52:09;;;;;;;22.27;9.93;;;;;;;;;;5109894;27;20495;-76
2022/11/06 06:54:35;;;;;;;54.50;13.38;;;;;;;;;;5125511;27;20897;-77
2022/11/06 06:57:01;;;;;;;42.22;11.20;;;;;;;;;;5129679;27;20419;-76
2022/11/06 06:59:28;;;;;;;16.63;8.40;;;;;;;;;;5111189;27;20421;-76
2022/11/06 07:01:54;;;;;;;15.77;7.70;;;;;;;;;;5148560;27;21121;-78
2022/11/06 07:04:20;;;;;;;37.97;9.90;;;;;;;;;;5146951;27;20910;-77
2022/11/06 07:09:02;;;;;;;14.30;7.43;;;;;;;;;;5142265;27;20424;-76
2022/11/06 07:11:28;;;;;;;16.07;6.47;;;;;;;;;;5141280;27;20413;-76
2022/11/06 07:13:54;;;;;;;15.23;8.10;;;;;;;;;;5110284;27;20907;-76
2022/11/06 07:16:20;;;;;;;15.52;7.10;;;;;;;;;;5148886;27;20447;-76
2022/11/06 07:18:46;;;;;;;21.80;6.90;;;;;;;;;;5146666;27;20533;-76
2022/11/06 07:21:13;;;;;;;13.52;6.85;;;;;;;;;;5130227;27;20431;-76
2022/11/06 07:23:39;;;;;;;16.10;6.63;;;;;;;;;;5139777;27;20421;-76
2022/11/06 07:26:06;;;;;;;33.97;8.70;;;;;;;;;;5149398;27;20818;-79
2022/11/06 07:28:32;;;;;;;14.68;6.90;;;;;;;;;;5136687;27;20570;-80
2022/11/06 07:31:00;;;;;;;58.05;10.23;;;9.50;99.90;;;;;;5113568;28;20415;-80
2022/11/06 07:33:26;;;;;;;13.88;7.00;;;;;;;;;;5136869;27;20414;-75
2022/11/06 07:35:52;;;;;;;24.95;7.72;;;;;;;;;;5131431;27;20398;-76
2022/11/06 07:38:18;;;;;;;16.40;7.68;;;;;;;;;;5115860;27;20463;-80
2022/11/06 07:40:44;;;;;;;18.33;7.03;;;;;;;;;;5129241;27;20443;-81
2022/11/06 07:43:11;;;;;;;18.70;7.45;;;;;;;;;;5108817;27;20424;-76
2022/11/06 07:45:38;;;;;;;22.27;7.50;;;;;;;;;;5109399;27;20451;-77
2022/11/06 07:48:05;;;;;;;14.48;6.70;;;;;;;;;;5134892;27;20417;-76
2022/11/06 07:50:31;;;;;;;15.10;6.75;;;;;;;;;;5145133;27;20927;-80
2022/11/06 07:52:57;;;;;;;12.48;6.65;;;;;;;;;;5108522;28;20479;-77
2022/11/06 07:55:23;;;;;;;13.77;6.35;;;;;;;;;;5140777;27;20500;-75
2022/11/06 07:57:49;;;;;;;26.45;7.53;;;;;;;;;;5130974;27;20402;-77
2022/11/06 08:00:16;;;;;;;25.33;7.85;;;;;;;;;;5109874;27;20421;-76
2022/11/06 08:02:42;;;;;;;15.10;6.50;;;;;;;;;;5148063;27;20420;-80
2022/11/06 08:05:08;;;;;;;15.88;6.50;;;;;;;;;;5142370;27;20434;-82
2022/11/06 08:07:34;;;;;;;15.57;6.63;;;;;;;;;;5109671;28;20999;-81
2022/11/06 08:10:00;;;;;;;14.35;6.07;;;;;;;;;;5127788;27;20584;-82
2022/11/06 08:12:26;;;;;;;15.75;6.85;;;;;;;;;;5128741;27;20414;-83
2022/11/06 08:14:52;;;;;;;13.38;6.30;;;;;;;;;;5130690;27;20893;-81
2022/11/06 08:17:18;;;;;;;12.63;5.93;;;;;;;;;;5109193;28;20414;-77
2022/11/06 08:19:44;;;;;;;10.50;5.50;;;;;;;;;;5101016;27;20424;-77
2022/11/06 08:22:11;;;;;;;11.75;6.00;;;;;;;;;;5099085;28;20400;-77
2022/11/06 08:24:37;;;;;;;15.10;5.57;;;;;;;;;;5105784;28;20806;-79
2022/11/06 08:27:03;;;;;;;13.60;6.03;;;;;;;;;;5113259;28;20427;-77
2022/11/06 08:29:29;;;;;;;10.83;6.17;;;;;;;;;;5112906;27;20420;-77
2022/11/06 08:31:55;;;;;;;15.27;6.07;;;;;;;;;;5108544;28;20767;-76
2022/11/06 08:34:21;;;;;;;16.73;6.10;;;;;;;;;;5098409;27;20418;-76
2022/11/06 08:36:49;;;;;;;14.90;5.78;;;;;;;;;;5116952;27;20419;-76
2022/11/06 08:39:15;;;;;;;12.50;5.25;;;;;;;;;;5091044;27;20410;-76
2022/11/06 08:41:41;;;;;;;12.02;5.10;;;;;;;;;;5132870;27;20407;-76
2022/11/06 08:44:08;;;;;;;13.93;5.78;;;;;;;;;;5116603;27;20403;-76
2022/11/06 08:46:34;;;;;;;15.60;5.35;;;;;;;;;;5120580;27;20416;-76
2022/11/06 08:49:00;;;;;;;12.33;5.00;;;;;;;;;;5104067;28;20441;-76
2022/11/06 08:51:26;;;;;;;11.35;4.75;;;;;;;;;;5128639;27;20433;-77
2022/11/06 08:53:52;;;;;;;12.63;4.70;;;;;;;;;;5128973;27;20425;-77
2022/11/06 08:56:18;;;;;;;12.13;4.95;;;;;;;;;;5100815;27;20416;-76
2022/11/06 08:58:44;;;;;;;12.07;5.20;;;;;;;;;;5091036;27;20479;-78
2022/11/06 09:01:10;;;;;;;12.25;4.93;;;;;;;;;;5114327;27;20453;-76
2022/11/06 09:03:37;;;;;;;13.43;4.40;;;;;;;;;;5122290;27;20916;-76
2022/11/06 09:06:05;;;;;;;11.30;4.45;;;;;;;;;;5101814;27;20414;-77
2022/11/06 09:08:31;;;;;;;10.70;4.53;;;;;;;;;;5097014;28;20568;-77
2022/11/06 09:10:58;;;;;;;9.68;4.38;;;;;;;;;;5102048;27;20415;-80
2022/11/06 09:13:24;;;;;;;10.05;4.30;;;;;;;;;;5130579;27;20411;-78
2022/11/06 09:15:50;;;;;;;9.80;4.40;;;;;;;;;;5120491;27;20412;-76
2022/11/06 09:18:42;;;;;;;9.75;4.10;;;;;;;;;;5074082;27;20379;-77
2022/11/06 09:21:08;;;;;;;11.88;4.25;;;;;;;;;;5044358;28;20448;-76
2022/11/06 09:23:34;;;;;;;15.20;4.38;;;;;;;;;;5068125;27;20412;-76
2022/11/06 09:27:56;;;;;;;11.00;4.50;;;;;;;;;;5107755;27;1961863;-76
2022/11/06 09:30:23;;;;;;;11.77;4.77;;;10.70;99.90;;;;;;5133031;27;20408;-77
2022/11/06 09:32:53;;;;;;;11.20;4.07;;;;;;;;;;5146092;27;20412;-77
2022/11/06 09:35:20;;;;;;;11.82;4.82;;;10.60;99.90;;;;;;5133707;27;20970;-78
2022/11/06 09:37:49;;;;;;;7.03;3.78;;;;;;;;;;5118937;27;20414;-78
2022/11/06 09:40:19;;;;;;;11.27;3.87;;;;;;;;;;5147989;27;20424;-77
2022/11/06 09:42:48;;;;;;;10.43;3.75;;;;;;;;;;5128476;27;20818;-77
2022/11/06 09:45:16;;;;;;;10.83;4.97;;;;;;;;;;5129422;27;20512;-78
2022/11/06 09:47:49;;;;;;;10.32;4.60;;;;;;;;;;5166595;27;20515;-78
2022/11/06 09:50:17;;;;;;;10.70;4.43;;;;;;;;;;5146726;27;20420;-79
2022/11/06 09:52:51;;;;;;;9.05;3.70;;;;;;;;;;5149761;27;20974;-79
2022/11/06 09:55:20;;;;;;;10.63;3.78;;;;;;;;;;5131020;27;20408;-79
2022/11/06 09:57:49;;;;;;;10.48;3.70;;;;;;;;;;5133769;27;20420;-77
2022/11/06 10:00:16;;;;;;;7.55;3.50;;;11.20;99.90;;;;;;5126454;27;20440;-77
2022/11/06 10:03:03;;;;;;;11.05;3.45;;;;;;;;;;5131236;27;20528;-77
2022/11/06 10:05:39;;;;;;;10.97;3.97;;;;;;;;;;5149668;27;20452;-76
2022/11/06 10:08:25;;;;;;;9.85;3.53;;;;;;;;;;5150050;27;20420;-77
2022/11/06 10:10:51;;;;;;;9.40;3.40;;;;;;;;;;5137937;27;20422;-76
2022/11/06 10:13:36;;;;;;;10.90;3.60;;;;;;;;;;5123748;27;20406;-76
2022/11/06 10:16:21;;;;;;;9.13;3.38;;;;;;;;;;5139913;27;20448;-77
2022/11/06 10:18:53;;;;;;;8.20;3.45;;;;;;;;;;5149452;27;20420;-77
2022/11/06 10:21:19;;;;;;;8.50;3.70;;;;;;;;;;5132011;27;20442;-76
2022/11/06 10:23:45;;;;;;;10.88;4.10;;;;;;;;;;5146971;27;20427;-77
2022/11/06 10:26:16;;;;;;;8.80;3.47;;;11.50;99.90;;;;;;5126832;27;20485;-79
2022/11/06 10:28:51;;;;;;;8.85;3.15;;;;;;;;;;5124527;27;20986;-79
2022/11/06 10:31:36;;;;;;;10.27;3.33;;;;;;;;;;5126206;27;20413;-78
2022/11/06 10:34:12;;;;;;;8.50;3.20;;;11.50;99.90;;;;;;5111821;27;20474;-78
2022/11/06 10:36:44;;;;;;;10.15;3.20;;;;;;;;;;5107358;27;20493;-79
2022/11/06 10:39:13;;;;;;;8.02;3.40;;;;;;;;;;5114369;27;20437;-79
2022/11/06 10:41:40;;;;;;;8.73;4.28;;;;;;;;;;5092743;27;20424;-77
2022/11/06 10:44:13;;;;;;;8.98;3.10;;;;;;;;;;5094314;27;20437;-77
2022/11/06 10:47:02;;;;;;;10.77;3.70;;;11.90;99.90;;;;;;5111028;27;20505;-76
2022/11/06 10:49:31;;;;;;;8.73;3.47;;;;;;;;;;5097950;27;20906;-74
2022/11/06 10:52:09;;;;;;;8.85;3.80;;;;;;;;;;5097402;27;20895;-77
2022/11/06 10:54:41;;;;;;;7.10;3.00;;;;;;;;;;5106848;27;20414;-78
2022/11/06 10:59:14;;;;;;;8.57;3.35;;;;;;;;;;5118247;27;20379;-79
2022/11/06 11:01:41;;;;;;;10.57;4.07;;;;;;;;;;5118937;28;20555;-78
2022/11/06 11:04:07;;;;;;;9.52;4.20;;;;;;;;;;5110032;27;20422;-80
2022/11/06 11:06:33;;;;;;;11.43;3.90;;;;;;;;;;5111478;28;20427;-80
2022/11/06 11:09:00;;;;;;;10.57;4.05;;;;;;;;;;5092650;28;20514;-81
2022/11/06 11:11:43;;;;;;;9.03;3.87;;;;;;;;;;5113565;28;20510;-81
2022/11/06 11:14:41;;;;;;;;;;;;;;;;;;;;;
2022/11/06 11:17:19;;;;;;;11.15;4.05;;;;;;;;;;5113661;27;20417;-81
2022/11/06 11:19:45;;;;;;;10.75;4.32;;;;;;;;;;5096930;28;20428;-79
2022/11/06 11:22:17;;;;;;;10.57;4.43;;;;;;;;;;5082228;28;20508;-81
2022/11/06 11:25:53;;;;;;;10.57;4.43;;;;;;;;;;5104252;28;21015;-79
2022/11/06 11:28:03;;;;;;;11.50;5.20;;;;;;;;;;5082496;28;20433;-80
2022/11/06 11:30:59;;;;;;;11.07;5.22;;;;;;;;;;5071989;28;20433;-79
2022/11/06 11:33:28;;;;;;;10.82;4.43;;;;;;;;;;5076817;28;20413;-79
2022/11/06 11:35:54;;;;;;;10.33;5.17;;;;;;;;;;5086654;28;20424;-80
2022/11/06 11:38:21;;;;;;;14.27;5.10;;;;;;;;;;5088646;28;20955;-80
2022/11/06 11:40:48;;;;;;;14.52;5.53;;;;;;;;;;5092905;28;20791;-78
2022/11/06 11:43:27;;;;;;;10.65;5.10;;;;;;;;;;5100844;28;20514;-80
2022/11/06 11:46:03;;;;;;;12.57;4.67;;;;;;;;;;5100357;28;21050;-79
2022/11/06 11:48:42;;;;;;;10.23;4.97;;;;;;;;;;5096833;28;20437;-78
2022/11/06 11:51:23;;;;;;;9.65;4.18;;;;;;;;;;5080793;28;20879;-80
2022/11/06 11:53:50;;;;;;;10.32;4.43;;;;;;;;;;5081085;28;20959;-79
2022/11/06 11:56:18;;;;;;;9.45;3.85;;;;;;;;;;5082266;28;20405;-79
2022/11/06 11:58:50;;;;;;;9.60;3.50;;;11.50;99.90;;;;;;5081259;28;20453;-78
2022/11/06 12:01:17;;;;;;;8.55;3.70;;;;;;;;;;5082322;28;20444;-77
2022/11/06 12:03:45;;;;;;;8.68;3.65;;;;;;;;;;5097700;28;20425;-79
2022/11/06 12:06:12;;;;;;;9.05;3.20;;;;;;;;;;5116693;27;20837;-80
2022/11/06 12:08:45;;;;;;;8.45;3.67;;;11.70;99.90;;;;;;5092667;28;20417;-79
2022/11/06 12:11:14;;;;;;;7.85;3.20;;;;;;;;;;5083060;28;21267;-80
2022/11/06 12:13:40;;;;;;;8.40;3.50;;;;;;;;;;5067179;28;20801;-78
2022/11/06 12:17:37;;;;;;;9.75;3.20;;;;;;;;;;5087529;27;1974297;-78
2022/11/06 12:20:08;;;;;;;9.65;2.97;;;;;;;;;;5136478;27;20435;-79
2022/11/06 12:24:15;;;;;;;8.10;2.70;;;;;;;;;;5115303;27;20877;-78
2022/11/06 12:26:47;;;;;;;5.80;2.65;;;;;;;;;;5103532;28;20512;-78
2022/11/06 12:29:16;;;;;;;7.90;2.83;;;;;;;;;;5085371;28;20913;-78
2022/11/06 12:31:51;;;;;;;7.87;3.20;;;;;;;;;;5089141;28;20425;-79
2022/11/06 12:34:22;;;;;;;9.65;3.30;;;;;;;;;;5091963;28;20405;-79
2022/11/06 12:37:17;;;;;;;8.60;3.30;;;11.60;99.90;;;;;;5084058;28;20913;-79
2022/11/06 12:39:44;;;;;;;8.90;2.90;;;;;;;;;;5098311;28;20434;-78
2022/11/06 12:42:11;;;;;;;8.60;3.22;;;;;;;;;;5101240;28;20437;-78
2022/11/06 12:44:38;;;;;;;8.55;3.35;;;;;;;;;;5089775;28;20409;-79
2022/11/06 12:47:09;;;;;;;9.82;2.92;;;;;;;;;;5092470;28;20464;-79
2022/11/06 12:50:17;;;;;;;6.57;2.90;;;11.50;99.90;;;;;;5089750;28;20403;-80
2022/11/06 12:52:49;;;;;;;8.63;2.60;;;;;;;;;;5104659;28;20454;-76
2022/11/06 12:55:41;;;;;;;8.68;2.97;;;;;;;;;;5105921;28;20900;-77
2022/11/06 12:58:11;;;;;;;8.07;3.03;;;;;;;;;;5085986;28;20421;-77
2022/11/06 13:02:13;;;;;;;6.85;2.63;;;;;;;;;;5150262;27;20437;-77
2022/11/06 13:04:59;;;;;;;6.15;2.80;;;;;;;;;;5125370;28;20514;-77
2022/11/06 13:07:44;;;;;;;6.53;2.67;;;;;;;;;;5107013;28;20423;-77
2022/11/06 13:10:22;;;;;;;7.35;2.40;;;;;;;;;;5121251;27;20500;-77
2022/11/06 13:12:54;;;;;;;8.93;2.40;;;;;;;;;;5121506;28;20455;-77
2022/11/06 13:15:21;;;;;;;10.07;2.88;;;;;;;;;;5120500;28;20415;-76
2022/11/06 13:18:00;;;;;;;8.63;3.38;;;;;;;;;;5104972;28;20422;-76
2022/11/06 13:20:29;;;;;;;7.30;2.90;;;;;;;;;;5104026;28;20420;-76
2022/11/06 13:23:08;;;;;;;8.93;2.70;;;;;;;;;;5104605;28;20412;-78
2022/11/06 13:25:56;;;;;;;10.65;2.90;;;;;;;;;;5108482;28;20769;-77
2022/11/06 13:28:26;;;;;;;6.05;2.55;;;;;;;;;;5107605;28;20499;-77
2022/11/06 13:30:53;;;;;;;6.88;2.28;;;;;;;;;;5108045;28;20427;-76
2022/11/06 13:33:22;;;;;;;8.15;2.80;;;;;;;;;;5092163;28;20421;-76
2022/11/06 13:35:48;;;;;;;8.57;2.78;;;;;;;;;;5109236;28;20413;-76
2022/11/06 13:38:16;;;;;;;6.38;2.60;;;;;;;;;;5104669;28;20411;-77
2022/11/06 13:40:47;;;;;;;5.95;2.58;;;;;;;;;;5087603;28;20431;-76
2022/11/06 13:43:22;;;;;;;10.27;2.70;;;11.60;99.90;;;;;;5109639;28;20421;-76
2022/11/06 13:45:56;;;;;;;8.57;2.67;;;;;;;;;;5103961;28;20421;-76
2022/11/06 13:48:30;;;;;;;7.10;2.63;;;;;;;;;;5111667;28;20413;-77
2022/11/06 13:51:07;;;;;;;5.72;2.38;;;11.80;99.90;;;;;;5098500;28;20420;-76
2022/11/06 13:53:56;;;;;;;6.53;2.40;;;11.80;99.90;;;;;;5117512;27;20492;-76
2022/11/06 13:56:35;;;;;;;9.50;2.60;;;;;;;;;;5122292;28;20969;-77
2022/11/06 13:59:19;;;;;;;7.38;2.33;;;;;;;;;;5098595;28;20409;-76
2022/11/06 14:01:51;;;;;;;9.45;2.50;;;;;;;;;;5094848;28;20431;-76
2022/11/06 14:04:29;;;;;;;5.90;2.47;;;;;;;;;;5114749;27;20419;-76
2022/11/06 14:06:57;;;;;;;11.55;3.25;;;;;;;;;;5125214;27;20772;-76
2022/11/06 14:09:25;;;;;;;7.63;2.85;;;;;;;;;;5118130;28;20560;-76
2022/11/06 14:11:57;;;;;;;8.65;3.10;;;11.90;99.90;;;;;;5105594;27;20945;-76
2022/11/06 14:14:27;;;;;;;9.63;2.87;;;;;;;;;;5090658;28;20502;-76
2022/11/06 14:17:03;;;;;;;7.88;2.67;;;;;;;;;;5102557;28;20998;-76
2022/11/06 14:19:29;;;;;;;10.38;2.90;;;;;;;;;;5095811;28;20433;-76
2022/11/06 14:22:15;;;;;;;8.70;2.53;;;;;;;;;;5101760;28;20419;-76
2022/11/06 14:24:42;;;;;;;8.02;3.00;;;;;;;;;;5075587;28;20425;-76
2022/11/06 14:27:12;;;;;;;11.45;3.05;;;;;;;;;;5097176;27;20414;-77
2022/11/06 14:29:38;;;;;;;7.55;2.60;;;;;;;;;;5101999;28;20469;-76
2022/11/06 14:32:12;;;;;;;7.80;2.40;;;;;;;;;;5097572;28;20418;-76
2022/11/06 14:34:39;;;;;;;6.82;2.33;;;;;;;;;;5105876;28;20775;-75
2022/11/06 14:37:18;;;;;;;5.65;2.40;;;;;;;;;;5090265;28;20502;-76
2022/11/06 14:39:50;;;;;;;7.07;2.20;;;;;;;;;;5098638;28;20432;-76
2022/11/06 14:42:22;;;;;;;8.38;2.25;;;;;;;;;;5079645;28;20422;-75
2022/11/06 14:45:04;;;;;;;7.93;2.00;;;;;;;;;;5098873;28;20426;-76
2022/11/06 14:47:33;;;;;;;5.60;1.90;;;;;;;;;;5094647;28;20430;-76
2022/11/06 14:50:01;;;;;;;5.78;1.90;;;;;;;;;;5092854;28;20434;-76
2022/11/06 14:52:28;;;;;;;6.05;2.38;;;;;;;;;;5092356;28;20408;-76
2022/11/06 14:55:05;;;;;;;7.30;2.25;;;11.70;99.90;;;;;;5089866;28;21538;-76
2022/11/06 14:58:19;;;;;;;6.40;2.30;;;;;;;;;;5036072;27;4399330;-76
2022/11/06 15:00:51;;;;;;;6.80;2.20;;;;;;;;;;5140386;27;20413;-76
2022/11/06 15:03:37;;;;;;;6.60;2.20;;;;;;;;;;5131757;27;20446;-77
2022/11/06 15:06:16;;;;;;;5.97;2.07;;;;;;;;;;5136602;27;20453;-76
2022/11/06 15:08:45;;;;;;;7.53;2.53;;;;;;;;;;5131841;27;20390;-76
2022/11/06 15:11:29;;;;;;;7.22;2.13;;;;;;;;;;5131520;27;20410;-76